sensor_id;sensor_type;location;lat;lon;timestamp;pressure;altitude;pressure_sealevel;temperature;humidity
4012;BME280;2020;48.682;9.024;2022-08-21T00:00:44;96577.81;;;15.15;66.20
4012;BME280;2020;48.682;9.024;2022-08-21T00:03:10;96578.00;;;14.99;67.30
4012;BME280;2020;48.682;9.024;2022-08-21T00:05:40;96569.66;;;14.80;68.63
4012;BME280;2020;48.682;9.024;2022-08-21T00:08:06;96575.38;;;14.84;68.32
4012;BME280;2020;48.682;9.024;2022-08-21T00:10:32;96575.19;;;14.85;67.67
4012;BME280;2020;48.682;9.024;2022-08-21T00:12:57;96568.50;;;14.83;68.10
4012;BME280;2020;48.682;9.024;2022-08-21T00:15:27;96568.94;;;14.86;67.20
4012;BME280;2020;48.682;9.024;2022-08-21T00:17:54;96570.03;;;14.77;68.16
4012;BME280;2020;48.682;9.024;2022-08-21T00:20:21;96563.31;;;14.59;69.19
4012;BME280;2020;48.682;9.024;2022-08-21T00:22:47;96568.88;;;14.56;69.39
4012;BME280;2020;48.682;9.024;2022-08-21T00:25:14;96561.50;;;14.60;69.08
4012;BME280;2020;48.682;9.024;2022-08-21T00:27:40;96552.72;;;14.53;69.16
4012;BME280;2020;48.682;9.024;2022-08-21T00:30:08;96554.81;;;14.57;68.92
4012;BME280;2020;48.682;9.024;2022-08-21T00:32:37;96560.03;;;14.57;68.12
4012;BME280;2020;48.682;9.024;2022-08-21T00:35:05;96555.53;;;14.51;68.95
4012;BME280;2020;48.682;9.024;2022-08-21T00:37:30;96557.69;;;14.62;68.13
4012;BME280;2020;48.682;9.024;2022-08-21T00:39:56;96560.69;;;14.59;68.01
4012;BME280;2020;48.682;9.024;2022-08-21T00:42:21;96563.66;;;14.56;68.50
4012;BME280;2020;48.682;9.024;2022-08-21T00:44:48;96564.56;;;14.63;68.11
4012;BME280;2020;48.682;9.024;2022-08-21T00:47:15;96564.38;;;14.50;68.80
4012;BME280;2020;48.682;9.024;2022-08-21T00:49:40;96558.56;;;14.40;69.51
4012;BME280;2020;48.682;9.024;2022-08-21T00:52:10;96558.09;;;14.36;69.61
4012;BME280;2020;48.682;9.024;2022-08-21T00:54:36;96556.03;;;14.31;69.38
4012;BME280;2020;48.682;9.024;2022-08-21T00:57:07;96554.75;;;14.27;69.26
4012;BME280;2020;48.682;9.024;2022-08-21T00:59:37;96550.03;;;14.23;69.70
4012;BME280;2020;48.682;9.024;2022-08-21T01:02:05;96546.97;;;14.19;70.32
4012;BME280;2020;48.682;9.024;2022-08-21T01:04:32;96544.06;;;14.14;70.75
4012;BME280;2020;48.682;9.024;2022-08-21T01:06:57;96549.06;;;14.00;69.98
4012;BME280;2020;48.682;9.024;2022-08-21T01:09:22;96546.75;;;14.06;69.89
4012;BME280;2020;48.682;9.024;2022-08-21T01:11:48;96549.16;;;14.07;69.83
4012;BME280;2020;48.682;9.024;2022-08-21T01:14:14;96548.13;;;14.16;69.33
4012;BME280;2020;48.682;9.024;2022-08-21T01:16:42;96548.66;;;14.12;68.98
4012;BME280;2020;48.682;9.024;2022-08-21T01:19:09;96545.13;;;14.04;70.47
4012;BME280;2020;48.682;9.024;2022-08-21T01:21:34;96549.63;;;13.87;71.28
4012;BME280;2020;48.682;9.024;2022-08-21T01:24:00;96554.41;;;13.84;71.38
4012;BME280;2020;48.682;9.024;2022-08-21T01:26:31;96544.28;;;13.81;71.38
4012;BME280;2020;48.682;9.024;2022-08-21T01:31:29;96552.75;;;13.83;71.48
4012;BME280;2020;48.682;9.024;2022-08-21T01:33:56;96542.75;;;13.63;72.58
4012;BME280;2020;48.682;9.024;2022-08-21T01:36:22;96544.38;;;13.64;71.58
4012;BME280;2020;48.682;9.024;2022-08-21T01:38:48;96539.75;;;13.74;70.60
4012;BME280;2020;48.682;9.024;2022-08-21T01:41:14;96540.38;;;13.77;70.86
4012;BME280;2020;48.682;9.024;2022-08-21T01:43:41;96545.66;;;13.68;71.80
4012;BME280;2020;48.682;9.024;2022-08-21T01:46:07;96533.91;;;13.64;71.81
4012;BME280;2020;48.682;9.024;2022-08-21T01:48:33;96536.03;;;13.69;71.05
4012;BME280;2020;48.682;9.024;2022-08-21T01:50:58;96534.22;;;13.69;70.05
4012;BME280;2020;48.682;9.024;2022-08-21T01:53:24;96535.44;;;13.58;71.51
4012;BME280;2020;48.682;9.024;2022-08-21T01:55:49;96535.16;;;13.53;72.67
4012;BME280;2020;48.682;9.024;2022-08-21T01:58:14;96536.59;;;13.56;71.54
4012;BME280;2020;48.682;9.024;2022-08-21T02:00:39;96532.72;;;13.43;71.31
4012;BME280;2020;48.682;9.024;2022-08-21T02:03:05;96523.91;;;13.44;71.18
4012;BME280;2020;48.682;9.024;2022-08-21T02:05:30;96525.50;;;13.54;70.54
4012;BME280;2020;48.682;9.024;2022-08-21T02:07:56;96518.97;;;13.50;70.64
4012;BME280;2020;48.682;9.024;2022-08-21T02:10:25;96524.22;;;13.41;70.74
4012;BME280;2020;48.682;9.024;2022-08-21T02:12:51;96523.28;;;13.34;71.75
4012;BME280;2020;48.682;9.024;2022-08-21T02:15:17;96520.50;;;13.44;71.02
4012;BME280;2020;48.682;9.024;2022-08-21T02:17:46;96514.75;;;13.40;71.24
4012;BME280;2020;48.682;9.024;2022-08-21T02:20:19;96521.84;;;13.23;72.25
4012;BME280;2020;48.682;9.024;2022-08-21T02:22:44;96519.06;;;13.25;70.93
4012;BME280;2020;48.682;9.024;2022-08-21T02:25:10;96513.56;;;13.20;71.21
4012;BME280;2020;48.682;9.024;2022-08-21T02:27:41;96517.09;;;13.27;71.07
4012;BME280;2020;48.682;9.024;2022-08-21T02:30:08;96514.50;;;13.27;70.99
4012;BME280;2020;48.682;9.024;2022-08-21T02:32:34;96502.09;;;13.21;71.23
4012;BME280;2020;48.682;9.024;2022-08-21T02:34:59;96510.34;;;13.09;73.16
4012;BME280;2020;48.682;9.024;2022-08-21T02:37:25;96516.25;;;13.03;73.32
4012;BME280;2020;48.682;9.024;2022-08-21T02:39:50;96511.03;;;12.95;73.47
4012;BME280;2020;48.682;9.024;2022-08-21T02:42:16;96504.16;;;13.02;72.11
4012;BME280;2020;48.682;9.024;2022-08-21T02:44:41;96502.19;;;13.04;71.44
4012;BME280;2020;48.682;9.024;2022-08-21T02:47:06;96505.09;;;13.09;71.92
4012;BME280;2020;48.682;9.024;2022-08-21T02:49:32;96501.53;;;13.02;71.15
4012;BME280;2020;48.682;9.024;2022-08-21T02:51:57;96511.50;;;12.98;71.96
4012;BME280;2020;48.682;9.024;2022-08-21T02:54:23;96512.03;;;12.94;73.34
4012;BME280;2020;48.682;9.024;2022-08-21T02:56:48;96516.63;;;12.83;73.85
4012;BME280;2020;48.682;9.024;2022-08-21T02:59:13;96510.41;;;12.93;73.53
4012;BME280;2020;48.682;9.024;2022-08-21T03:01:39;96511.88;;;12.87;73.53
4012;BME280;2020;48.682;9.024;2022-08-21T03:04:04;96511.06;;;12.86;72.36
4012;BME280;2020;48.682;9.024;2022-08-21T03:06:29;96509.47;;;12.77;71.67
4012;BME280;2020;48.682;9.024;2022-08-21T03:08:54;96512.75;;;12.71;72.07
4012;BME280;2020;48.682;9.024;2022-08-21T03:11:20;96511.13;;;12.70;72.80
4012;BME280;2020;48.682;9.024;2022-08-21T03:13:46;96507.53;;;12.71;71.51
4012;BME280;2020;48.682;9.024;2022-08-21T03:16:11;96509.50;;;12.69;72.36
4012;BME280;2020;48.682;9.024;2022-08-21T03:18:37;96507.03;;;12.67;72.33
4012;BME280;2020;48.682;9.024;2022-08-21T03:21:02;96504.63;;;12.66;72.91
4012;BME280;2020;48.682;9.024;2022-08-21T03:23:28;96517.66;;;12.57;73.19
4012;BME280;2020;48.682;9.024;2022-08-21T03:25:55;96512.94;;;12.61;72.79
4012;BME280;2020;48.682;9.024;2022-08-21T03:28:21;96513.09;;;12.51;74.59
4012;BME280;2020;48.682;9.024;2022-08-21T03:30:48;96501.03;;;12.50;74.14
4012;BME280;2020;48.682;9.024;2022-08-21T03:33:14;96513.78;;;12.45;73.37
4012;BME280;2020;48.682;9.024;2022-08-21T03:35:40;96510.19;;;12.46;73.99
4012;BME280;2020;48.682;9.024;2022-08-21T03:38:07;96512.13;;;12.44;73.56
4012;BME280;2020;48.682;9.024;2022-08-21T03:40:32;96520.81;;;12.36;73.52
4012;BME280;2020;48.682;9.024;2022-08-21T03:42:58;96517.56;;;12.18;73.16
4012;BME280;2020;48.682;9.024;2022-08-21T03:45:24;96512.47;;;12.33;74.92
4012;BME280;2020;48.682;9.024;2022-08-21T03:48:01;96509.25;;;12.22;75.36
4012;BME280;2020;48.682;9.024;2022-08-21T03:50:29;96515.44;;;12.21;74.96
4012;BME280;2020;48.682;9.024;2022-08-21T03:52:55;96519.34;;;12.17;76.33
4012;BME280;2020;48.682;9.024;2022-08-21T03:55:21;96516.75;;;12.17;76.13
4012;BME280;2020;48.682;9.024;2022-08-21T03:57:47;96518.03;;;12.21;74.18
4012;BME280;2020;48.682;9.024;2022-08-21T04:00:13;96515.75;;;12.26;73.81
4012;BME280;2020;48.682;9.024;2022-08-21T04:02:40;96516.75;;;12.17;74.06
4012;BME280;2020;48.682;9.024;2022-08-21T04:05:07;96521.31;;;12.07;73.60
4012;BME280;2020;48.682;9.024;2022-08-21T04:07:32;96518.06;;;12.05;74.09
4012;BME280;2020;48.682;9.024;2022-08-21T04:09:57;96526.19;;;12.10;74.10
4012;BME280;2020;48.682;9.024;2022-08-21T04:12:23;96528.16;;;12.08;74.17
4012;BME280;2020;48.682;9.024;2022-08-21T04:14:49;96531.75;;;12.07;73.21
4012;BME280;2020;48.682;9.024;2022-08-21T04:17:16;96532.72;;;12.14;74.36
4012;BME280;2020;48.682;9.024;2022-08-21T04:19:42;96533.72;;;12.05;73.21
4012;BME280;2020;48.682;9.024;2022-08-21T04:22:07;96530.78;;;12.08;73.92
4012;BME280;2020;48.682;9.024;2022-08-21T04:24:32;96536.31;;;12.13;73.60
4012;BME280;2020;48.682;9.024;2022-08-21T04:26:58;96533.06;;;12.11;73.96
4012;BME280;2020;48.682;9.024;2022-08-21T04:29:23;96539.91;;;12.12;73.37
4012;BME280;2020;48.682;9.024;2022-08-21T04:31:48;96547.41;;;12.07;73.04
4012;BME280;2020;48.682;9.024;2022-08-21T04:34:13;96547.06;;;12.10;74.04
4012;BME280;2020;48.682;9.024;2022-08-21T04:36:39;96549.19;;;11.98;73.62
4012;BME280;2020;48.682;9.024;2022-08-21T04:39:04;96559.94;;;11.95;75.65
4012;BME280;2020;48.682;9.024;2022-08-21T04:41:29;96561.69;;;11.86;77.22
4012;BME280;2020;48.682;9.024;2022-08-21T04:43:55;96558.13;;;11.95;75.51
4012;BME280;2020;48.682;9.024;2022-08-21T04:46:21;96565.63;;;11.98;74.45
4012;BME280;2020;48.682;9.024;2022-08-21T04:48:46;96561.25;;;11.99;74.26
4012;BME280;2020;48.682;9.024;2022-08-21T04:51:25;96556.50;;;11.94;74.03
4012;BME280;2020;48.682;9.024;2022-08-21T04:54:05;96564.13;;;11.88;74.48
4012;BME280;2020;48.682;9.024;2022-08-21T04:56:38;96566.25;;;11.76;76.45
4012;BME280;2020;48.682;9.024;2022-08-21T04:59:07;96559.75;;;11.88;74.79
4012;BME280;2020;48.682;9.024;2022-08-21T05:01:36;96564.31;;;11.86;75.92
4012;BME280;2020;48.682;9.024;2022-08-21T05:04:04;96573.13;;;11.93;75.34
4012;BME280;2020;48.682;9.024;2022-08-21T05:06:33;96564.00;;;11.97;75.22
4012;BME280;2020;48.682;9.024;2022-08-21T05:09:00;96563.06;;;12.07;75.43
4012;BME280;2020;48.682;9.024;2022-08-21T05:11:26;96561.41;;;12.06;76.26
4012;BME280;2020;48.682;9.024;2022-08-21T05:13:51;96565.00;;;12.05;76.53
4012;BME280;2020;48.682;9.024;2022-08-21T05:16:17;96567.94;;;12.10;76.23
4012;BME280;2020;48.682;9.024;2022-08-21T05:18:43;96562.72;;;12.18;76.09
4012;BME280;2020;48.682;9.024;2022-08-21T05:21:08;96564.69;;;12.24;73.96
4012;BME280;2020;48.682;9.024;2022-08-21T05:23:35;96572.84;;;12.05;73.28
4012;BME280;2020;48.682;9.024;2022-08-21T05:26:01;96574.97;;;12.01;75.54
4012;BME280;2020;48.682;9.024;2022-08-21T05:28:26;96571.38;;;12.19;74.99
4012;BME280;2020;48.682;9.024;2022-08-21T05:30:52;96569.25;;;12.31;75.86
4012;BME280;2020;48.682;9.024;2022-08-21T05:33:17;96578.56;;;12.25;73.84
4012;BME280;2020;48.682;9.024;2022-08-21T05:35:43;96567.94;;;12.26;73.45
4012;BME280;2020;48.682;9.024;2022-08-21T05:38:09;96576.75;;;12.25;74.53
4012;BME280;2020;48.682;9.024;2022-08-21T05:40:35;96580.00;;;12.52;73.55
4012;BME280;2020;48.682;9.024;2022-08-21T05:43:00;96573.97;;;12.60;72.95
4012;BME280;2020;48.682;9.024;2022-08-21T05:45:31;96581.63;;;12.78;72.79
4012;BME280;2020;48.682;9.024;2022-08-21T05:48:08;96583.38;;;12.86;72.94
4012;BME280;2020;48.682;9.024;2022-08-21T05:50:34;96585.47;;;13.07;72.59
4012;BME280;2020;48.682;9.024;2022-08-21T05:53:00;96585.75;;;13.21;73.04
4012;BME280;2020;48.682;9.024;2022-08-21T05:55:25;96585.66;;;13.37;72.42
4012;BME280;2020;48.682;9.024;2022-08-21T05:57:50;96586.13;;;13.57;71.89
4012;BME280;2020;48.682;9.024;2022-08-21T06:00:15;96584.25;;;13.66;72.03
4012;BME280;2020;48.682;9.024;2022-08-21T06:02:41;96590.66;;;13.87;70.93
4012;BME280;2020;48.682;9.024;2022-08-21T06:05:07;96588.25;;;14.09;70.83
4012;BME280;2020;48.682;9.024;2022-08-21T06:07:32;96585.16;;;14.28;67.97
4012;BME280;2020;48.682;9.024;2022-08-21T06:09:58;96587.03;;;14.43;69.48
4012;BME280;2020;48.682;9.024;2022-08-21T06:12:24;96587.16;;;14.65;70.04
4012;BME280;2020;48.682;9.024;2022-08-21T06:14:50;96591.34;;;14.74;69.96
4012;BME280;2020;48.682;9.024;2022-08-21T06:17:17;96594.06;;;14.96;68.49
4012;BME280;2020;48.682;9.024;2022-08-21T06:19:43;96594.53;;;15.14;67.82
4012;BME280;2020;48.682;9.024;2022-08-21T06:22:08;96591.53;;;15.17;65.90
4012;BME280;2020;48.682;9.024;2022-08-21T06:24:34;96587.66;;;15.28;67.22
4012;BME280;2020;48.682;9.024;2022-08-21T06:27:06;96590.03;;;15.38;67.63
4012;BME280;2020;48.682;9.024;2022-08-21T06:29:33;96586.72;;;15.51;66.83
4012;BME280;2020;48.682;9.024;2022-08-21T06:31:59;96594.22;;;15.69;67.70
4012;BME280;2020;48.682;9.024;2022-08-21T06:34:24;96588.75;;;15.86;63.75
4012;BME280;2020;48.682;9.024;2022-08-21T06:36:49;96590.53;;;16.00;66.22
4012;BME280;2020;48.682;9.024;2022-08-21T06:39:14;96589.91;;;16.20;65.19
4012;BME280;2020;48.682;9.024;2022-08-21T06:41:40;96584.66;;;16.20;63.73
4012;BME280;2020;48.682;9.024;2022-08-21T06:44:05;96588.16;;;16.27;63.28
4012;BME280;2020;48.682;9.024;2022-08-21T06:46:31;96576.50;;;16.58;63.52
4012;BME280;2020;48.682;9.024;2022-08-21T06:48:57;96578.84;;;16.75;62.93
4012;BME280;2020;48.682;9.024;2022-08-21T06:51:23;96575.44;;;16.81;62.66
4012;BME280;2020;48.682;9.024;2022-08-21T06:53:50;96569.81;;;16.84;61.92
4012;BME280;2020;48.682;9.024;2022-08-21T06:56:15;96578.78;;;16.96;61.45
4012;BME280;2020;48.682;9.024;2022-08-21T06:58:41;96569.59;;;17.14;61.18
4012;BME280;2020;48.682;9.024;2022-08-21T07:01:06;96568.09;;;17.40;60.58
4012;BME280;2020;48.682;9.024;2022-08-21T07:03:35;96566.78;;;17.71;60.13
4012;BME280;2020;48.682;9.024;2022-08-21T07:06:00;96558.97;;;17.98;59.00
4012;BME280;2020;48.682;9.024;2022-08-21T07:08:26;96559.81;;;18.19;58.27
4012;BME280;2020;48.682;9.024;2022-08-21T07:10:54;96557.78;;;18.27;58.43
4012;BME280;2020;48.682;9.024;2022-08-21T07:13:20;96560.22;;;18.56;57.01
4012;BME280;2020;48.682;9.024;2022-08-21T07:15:45;96560.41;;;18.75;56.06
4012;BME280;2020;48.682;9.024;2022-08-21T07:18:10;96561.41;;;18.87;55.68
4012;BME280;2020;48.682;9.024;2022-08-21T07:20:37;96566.25;;;19.04;55.46
4012;BME280;2020;48.682;9.024;2022-08-21T07:23:06;96557.28;;;19.18;54.88
4012;BME280;2020;48.682;9.024;2022-08-21T07:25:32;96570.41;;;19.45;54.03
4012;BME280;2020;48.682;9.024;2022-08-21T07:27:57;96565.38;;;19.37;53.10
4012;BME280;2020;48.682;9.024;2022-08-21T07:30:23;96556.84;;;19.35;53.41
4012;BME280;2020;48.682;9.024;2022-08-21T07:32:49;96560.28;;;19.42;53.97
4012;BME280;2020;48.682;9.024;2022-08-21T07:35:17;96564.06;;;19.60;52.79
4012;BME280;2020;48.682;9.024;2022-08-21T07:37:42;96565.59;;;19.74;52.74
4012;BME280;2020;48.682;9.024;2022-08-21T07:40:08;96560.19;;;20.01;52.24
4012;BME280;2020;48.682;9.024;2022-08-21T07:42:33;96555.63;;;20.15;52.05
4012;BME280;2020;48.682;9.024;2022-08-21T07:44:58;96552.63;;;20.37;51.03
4012;BME280;2020;48.682;9.024;2022-08-21T07:47:24;96551.31;;;20.46;50.82
4012;BME280;2020;48.682;9.024;2022-08-21T07:49:49;96550.63;;;20.83;49.58
4012;BME280;2020;48.682;9.024;2022-08-21T07:52:14;96554.59;;;20.92;49.39
4012;BME280;2020;48.682;9.024;2022-08-21T07:54:40;96555.78;;;20.96;48.02
4012;BME280;2020;48.682;9.024;2022-08-21T07:57:05;96559.16;;;20.85;49.21
4012;BME280;2020;48.682;9.024;2022-08-21T07:59:30;96542.25;;;21.04;49.08
4012;BME280;2020;48.682;9.024;2022-08-21T08:01:55;96548.88;;;21.32;48.64
4012;BME280;2020;48.682;9.024;2022-08-21T08:04:21;96550.47;;;21.33;46.99
4012;BME280;2020;48.682;9.024;2022-08-21T08:06:46;96541.94;;;21.31;46.03
4012;BME280;2020;48.682;9.024;2022-08-21T08:09:12;96542.38;;;21.66;45.53
4012;BME280;2020;48.682;9.024;2022-08-21T08:11:39;96545.16;;;21.71;45.73
4012;BME280;2020;48.682;9.024;2022-08-21T08:14:06;96551.00;;;21.91;44.86
4012;BME280;2020;48.682;9.024;2022-08-21T08:16:31;96541.16;;;22.23;44.27
4012;BME280;2020;48.682;9.024;2022-08-21T08:18:57;96533.56;;;22.38;44.42
4012;BME280;2020;48.682;9.024;2022-08-21T08:21:22;96526.69;;;22.73;42.02
4012;BME280;2020;48.682;9.024;2022-08-21T08:23:47;96530.47;;;22.89;42.34
4012;BME280;2020;48.682;9.024;2022-08-21T08:26:13;96529.03;;;23.22;40.92
4012;BME280;2020;48.682;9.024;2022-08-21T08:28:40;96522.81;;;23.16;40.94
4012;BME280;2020;48.682;9.024;2022-08-21T08:31:06;96522.00;;;23.16;41.22
4012;BME280;2020;48.682;9.024;2022-08-21T08:33:31;96520.38;;;23.39;39.97
4012;BME280;2020;48.682;9.024;2022-08-21T08:35:56;96526.16;;;23.35;39.64
4012;BME280;2020;48.682;9.024;2022-08-21T08:38:24;96519.97;;;23.76;38.24
4012;BME280;2020;48.682;9.024;2022-08-21T08:41:10;96513.66;;;23.65;38.41
4012;BME280;2020;48.682;9.024;2022-08-21T08:43:38;96513.25;;;23.56;38.45
4012;BME280;2020;48.682;9.024;2022-08-21T08:46:11;96510.78;;;23.66;38.30
4012;BME280;2020;48.682;9.024;2022-08-21T08:48:53;96510.47;;;23.80;37.51
4012;BME280;2020;48.682;9.024;2022-08-21T08:51:39;96510.78;;;23.66;37.82
4012;BME280;2020;48.682;9.024;2022-08-21T08:54:10;96500.50;;;23.87;37.13
4012;BME280;2020;48.682;9.024;2022-08-21T08:56:36;96502.47;;;23.92;37.61
4012;BME280;2020;48.682;9.024;2022-08-21T08:59:08;96500.88;;;24.08;36.99
4012;BME280;2020;48.682;9.024;2022-08-21T09:01:35;96496.13;;;24.10;37.88
4012;BME280;2020;48.682;9.024;2022-08-21T09:04:00;96492.44;;;24.67;37.33
4012;BME280;2020;48.682;9.024;2022-08-21T09:06:40;96493.75;;;24.65;36.87
4012;BME280;2020;48.682;9.024;2022-08-21T09:11:49;96497.78;;;24.50;37.21
4012;BME280;2020;48.682;9.024;2022-08-21T09:14:29;96494.00;;;24.63;37.50
4012;BME280;2020;48.682;9.024;2022-08-21T09:17:29;96502.22;;;24.62;37.24
4012;BME280;2020;48.682;9.024;2022-08-21T09:23:04;96489.72;;;24.79;36.23
4012;BME280;2020;48.682;9.024;2022-08-21T09:25:42;96483.16;;;25.09;35.11
4012;BME280;2020;48.682;9.024;2022-08-21T09:28:11;96477.84;;;25.09;34.84
4012;BME280;2020;48.682;9.024;2022-08-21T09:30:40;96477.03;;;25.09;36.06
4012;BME280;2020;48.682;9.024;2022-08-21T09:33:06;96481.06;;;25.11;34.56
4012;BME280;2020;48.682;9.024;2022-08-21T09:35:32;96477.91;;;25.15;34.38
4012;BME280;2020;48.682;9.024;2022-08-21T09:38:05;96477.53;;;25.50;34.23
4012;BME280;2020;48.682;9.024;2022-08-21T09:43:21;96470.38;;;25.56;33.83
4012;BME280;2020;48.682;9.024;2022-08-21T09:45:48;96471.19;;;25.34;32.85
4012;BME280;2020;48.682;9.024;2022-08-21T09:48:18;96472.78;;;25.58;32.55
4012;BME280;2020;48.682;9.024;2022-08-21T09:50:45;96465.03;;;25.83;32.45
4012;BME280;2020;48.682;9.024;2022-08-21T09:55:51;96461.00;;;26.51;30.91
4012;BME280;2020;48.682;9.024;2022-08-21T09:58:37;96457.91;;;26.75;30.19
4012;BME280;2020;48.682;9.024;2022-08-21T10:01:04;96453.06;;;26.62;30.97
4012;BME280;2020;48.682;9.024;2022-08-21T10:03:30;96455.34;;;26.91;31.11
4012;BME280;2020;48.682;9.024;2022-08-21T10:08:22;96457.34;;;26.68;30.59
4012;BME280;2020;48.682;9.024;2022-08-21T10:10:52;96458.41;;;26.67;30.67
4012;BME280;2020;48.682;9.024;2022-08-21T10:16:27;96449.09;;;26.69;30.65
4012;BME280;2020;48.682;9.024;2022-08-21T10:24:47;96446.41;;;26.21;30.74
4012;BME280;2020;48.682;9.024;2022-08-21T10:27:24;96444.16;;;26.08;31.34
4012;BME280;2020;48.682;9.024;2022-08-21T10:30:03;96442.69;;;25.90;31.86
4012;BME280;2020;48.682;9.024;2022-08-21T10:35:34;96439.06;;;25.74;31.77
4012;BME280;2020;48.682;9.024;2022-08-21T10:38:37;96432.97;;;25.46;32.03
4012;BME280;2020;48.682;9.024;2022-08-21T10:44:10;96421.47;;;25.73;32.85
4012;BME280;2020;48.682;9.024;2022-08-21T10:46:56;96426.16;;;26.20;31.37
4012;BME280;2020;48.682;9.024;2022-08-21T10:55:04;96411.47;;;26.76;30.43
4012;BME280;2020;48.682;9.024;2022-08-21T10:57:41;96416.97;;;27.12;29.99
4012;BME280;2020;48.682;9.024;2022-08-21T11:00:13;96418.53;;;27.03;30.25
4012;BME280;2020;48.682;9.024;2022-08-21T11:02:55;96418.56;;;27.08;30.76
4012;BME280;2020;48.682;9.024;2022-08-21T11:05:51;96415.97;;;27.44;30.64
4012;BME280;2020;48.682;9.024;2022-08-21T11:08:33;96413.31;;;27.39;30.18
4012;BME280;2020;48.682;9.024;2022-08-21T11:13:34;96409.53;;;27.30;30.40
4012;BME280;2020;48.682;9.024;2022-08-21T11:18:50;96404.25;;;27.61;29.36
4012;BME280;2020;48.682;9.024;2022-08-21T11:27:12;96398.88;;;28.28;29.97
4012;BME280;2020;48.682;9.024;2022-08-21T11:29:41;96399.97;;;27.76;29.23
4012;BME280;2020;48.682;9.024;2022-08-21T11:32:35;96399.94;;;27.44;29.36
4012;BME280;2020;48.682;9.024;2022-08-21T11:35:26;96399.38;;;27.27;29.71
4012;BME280;2020;48.682;9.024;2022-08-21T11:43:45;96389.50;;;26.53;31.60
4012;BME280;2020;48.682;9.024;2022-08-21T11:51:50;96385.69;;;26.39;32.99
4012;BME280;2020;48.682;9.024;2022-08-21T11:56:50;96383.31;;;25.99;33.03
4012;BME280;2020;48.682;9.024;2022-08-21T11:59:21;96391.78;;;25.91;32.73
4012;BME280;2020;48.682;9.024;2022-08-21T12:01:50;96385.78;;;25.74;33.07
4012;BME280;2020;48.682;9.024;2022-08-21T12:06:44;96387.91;;;25.72;34.29
4012;BME280;2020;48.682;9.024;2022-08-21T12:09:33;96393.88;;;26.22;33.18
4012;BME280;2020;48.682;9.024;2022-08-21T12:14:39;96385.00;;;26.11;33.31
4012;BME280;2020;48.682;9.024;2022-08-21T12:17:07;96378.06;;;26.10;33.66
4012;BME280;2020;48.682;9.024;2022-08-21T12:19:33;96375.88;;;26.02;32.98
4012;BME280;2020;48.682;9.024;2022-08-21T12:26:58;96365.31;;;25.79;33.99
4012;BME280;2020;48.682;9.024;2022-08-21T12:29:27;96361.94;;;25.89;34.06
4012;BME280;2020;48.682;9.024;2022-08-21T12:34:50;96360.00;;;26.22;33.29
4012;BME280;2020;48.682;9.024;2022-08-21T12:37:34;96357.63;;;26.90;33.19
4012;BME280;2020;48.682;9.024;2022-08-21T12:40:04;96350.25;;;27.33;32.23
4012;BME280;2020;48.682;9.024;2022-08-21T12:42:44;96350.25;;;27.28;31.96
4012;BME280;2020;48.682;9.024;2022-08-21T12:45:32;96350.28;;;27.64;32.22
4012;BME280;2020;48.682;9.024;2022-08-21T12:48:06;96350.25;;;27.75;31.33
4012;BME280;2020;48.682;9.024;2022-08-21T12:50:36;96356.13;;;27.82;31.28
4012;BME280;2020;48.682;9.024;2022-08-21T12:53:09;96356.13;;;27.87;31.08
4012;BME280;2020;48.682;9.024;2022-08-21T12:55:41;96345.97;;;27.89;30.48
4012;BME280;2020;48.682;9.024;2022-08-21T12:58:19;96347.31;;;27.92;30.61
4012;BME280;2020;48.682;9.024;2022-08-21T13:00:49;96352.09;;;28.21;30.74
4012;BME280;2020;48.682;9.024;2022-08-21T13:03:15;96353.41;;;28.18;29.73
4012;BME280;2020;48.682;9.024;2022-08-21T13:05:41;96352.34;;;28.14;30.67
4012;BME280;2020;48.682;9.024;2022-08-21T13:08:09;96348.63;;;27.48;30.20
4012;BME280;2020;48.682;9.024;2022-08-21T13:10:36;96364.38;;;27.18;31.60
4012;BME280;2020;48.682;9.024;2022-08-21T13:13:09;96353.16;;;27.21;32.12
4012;BME280;2020;48.682;9.024;2022-08-21T13:15:38;96349.69;;;27.26;31.41
4012;BME280;2020;48.682;9.024;2022-08-21T13:18:06;96351.31;;;27.48;31.53
4012;BME280;2020;48.682;9.024;2022-08-21T13:20:35;96352.91;;;27.38;31.72
4012;BME280;2020;48.682;9.024;2022-08-21T13:23:06;96349.94;;;27.04;32.78
4012;BME280;2020;48.682;9.024;2022-08-21T13:25:40;96350.81;;;27.61;32.21
4012;BME280;2020;48.682;9.024;2022-08-21T13:28:09;96347.03;;;27.93;31.72
4012;BME280;2020;48.682;9.024;2022-08-21T13:30:39;96338.16;;;28.24;31.61
4012;BME280;2020;48.682;9.024;2022-08-21T13:33:05;96342.75;;;27.87;31.22
4012;BME280;2020;48.682;9.024;2022-08-21T13:38:18;96339.78;;;27.16;31.98
4012;BME280;2020;48.682;9.024;2022-08-21T13:40:50;96341.09;;;27.03;32.28
4012;BME280;2020;48.682;9.024;2022-08-21T13:43:30;96336.75;;;26.76;32.42
4012;BME280;2020;48.682;9.024;2022-08-21T13:45:56;96338.94;;;26.90;32.55
4012;BME280;2020;48.682;9.024;2022-08-21T13:48:25;96327.22;;;27.11;31.32
4012;BME280;2020;48.682;9.024;2022-08-21T13:50:51;96325.66;;;27.47;31.56
4012;BME280;2020;48.682;9.024;2022-08-21T13:56:32;96313.09;;;27.88;29.55
4012;BME280;2020;48.682;9.024;2022-08-21T13:58:59;96325.66;;;27.78;29.31
4012;BME280;2020;48.682;9.024;2022-08-21T14:01:30;96327.50;;;27.98;29.54
4012;BME280;2020;48.682;9.024;2022-08-21T14:04:03;96317.69;;;28.54;29.11
4012;BME280;2020;48.682;9.024;2022-08-21T14:06:34;96320.13;;;28.45;28.62
4012;BME280;2020;48.682;9.024;2022-08-21T14:09:12;96317.31;;;28.15;28.82
4012;BME280;2020;48.682;9.024;2022-08-21T14:11:38;96322.34;;;28.33;27.90
4012;BME280;2020;48.682;9.024;2022-08-21T14:14:13;96322.38;;;28.12;28.77
4012;BME280;2020;48.682;9.024;2022-08-21T14:16:56;96324.06;;;27.71;28.78
4012;BME280;2020;48.682;9.024;2022-08-21T14:19:28;96316.84;;;27.36;28.98
4012;BME280;2020;48.682;9.024;2022-08-21T14:22:00;96314.94;;;27.10;29.44
4012;BME280;2020;48.682;9.024;2022-08-21T14:24:29;96319.19;;;26.85;29.66
4012;BME280;2020;48.682;9.024;2022-08-21T14:26:57;96309.34;;;26.96;29.33
4012;BME280;2020;48.682;9.024;2022-08-21T14:29:27;96308.28;;;27.13;29.35
4012;BME280;2020;48.682;9.024;2022-08-21T14:31:59;96310.41;;;27.21;29.06
4012;BME280;2020;48.682;9.024;2022-08-21T14:34:26;96310.72;;;27.56;29.64
4012;BME280;2020;48.682;9.024;2022-08-21T14:36:53;96307.75;;;27.32;29.69
4012;BME280;2020;48.682;9.024;2022-08-21T14:39:19;96298.66;;;27.48;29.88
4012;BME280;2020;48.682;9.024;2022-08-21T14:41:45;96301.09;;;27.50;30.08
4012;BME280;2020;48.682;9.024;2022-08-21T14:44:13;96303.72;;;27.13;30.68
4012;BME280;2020;48.682;9.024;2022-08-21T14:46:38;96294.13;;;27.33;30.61
4012;BME280;2020;48.682;9.024;2022-08-21T14:49:04;96295.22;;;27.63;30.04